sensor_id;sensor_type;location;lat;lon;timestamp;P1;durP1;ratioP1;P2;durP2;ratioP2
59040;SDS011;44825;53.200;6.448;2024-02-14T00:00:21;10.23;;;4.82;;
59040;SDS011;44825;53.200;6.448;2024-02-14T00:02:49;8.63;;;5.30;;
59040;SDS011;44825;53.200;6.448;2024-02-14T00:05:16;12.88;;;5.93;;
59040;SDS011;44825;53.200;6.448;2024-02-14T00:07:43;9.23;;;5.40;;
59040;SDS011;44825;53.200;6.448;2024-02-14T00:10:09;10.10;;;4.88;;
59040;SDS011;44825;53.200;6.448;2024-02-14T00:12:35;10.90;;;6.20;;
59040;SDS011;44825;53.200;6.448;2024-02-14T00:15:02;13.45;;;5.95;;
59040;SDS011;44825;53.200;6.448;2024-02-14T00:17:29;11.85;;;5.88;;
59040;SDS011;44825;53.200;6.448;2024-02-14T00:19:55;9.70;;;6.38;;
59040;SDS011;44825;53.200;6.448;2024-02-14T00:22:21;15.32;;;6.47;;
59040;SDS011;44825;53.200;6.448;2024-02-14T00:24:48;9.57;;;6.22;;
59040;SDS011;44825;53.200;6.448;2024-02-14T00:27:14;10.85;;;6.10;;
59040;SDS011;44825;53.200;6.448;2024-02-14T00:29:40;9.98;;;6.13;;
59040;SDS011;44825;53.200;6.448;2024-02-14T00:32:09;11.02;;;6.68;;
59040;SDS011;44825;53.200;6.448;2024-02-14T00:34:35;11.75;;;7.25;;
59040;SDS011;44825;53.200;6.448;2024-02-14T00:37:02;9.40;;;6.25;;
59040;SDS011;44825;53.200;6.448;2024-02-14T00:39:28;11.13;;;6.22;;
59040;SDS011;44825;53.200;6.448;2024-02-14T00:41:54;9.73;;;6.82;;
59040;SDS011;44825;53.200;6.448;2024-02-14T00:44:21;11.02;;;6.85;;
59040;SDS011;44825;53.200;6.448;2024-02-14T00:46:47;9.35;;;6.45;;
59040;SDS011;44825;53.200;6.448;2024-02-14T00:49:13;10.18;;;6.35;;
59040;SDS011;44825;53.200;6.448;2024-02-14T00:51:39;9.55;;;6.45;;
59040;SDS011;44825;53.200;6.448;2024-02-14T00:54:06;10.93;;;6.68;;
59040;SDS011;44825;53.200;6.448;2024-02-14T00:56:33;11.77;;;7.68;;
59040;SDS011;44825;53.200;6.448;2024-02-14T00:58:59;10.13;;;7.22;;
59040;SDS011;44825;53.200;6.448;2024-02-14T01:01:25;15.95;;;7.60;;
59040;SDS011;44825;53.200;6.448;2024-02-14T01:03:51;10.98;;;7.25;;
59040;SDS011;44825;53.200;6.448;2024-02-14T01:06:18;10.07;;;6.93;;
59040;SDS011;44825;53.200;6.448;2024-02-14T01:08:45;10.10;;;7.57;;
59040;SDS011;44825;53.200;6.448;2024-02-14T01:11:11;11.10;;;7.00;;
59040;SDS011;44825;53.200;6.448;2024-02-14T01:13:37;11.63;;;7.57;;
59040;SDS011;44825;53.200;6.448;2024-02-14T01:16:03;12.30;;;7.72;;
59040;SDS011;44825;53.200;6.448;2024-02-14T01:18:29;10.23;;;6.68;;
59040;SDS011;44825;53.200;6.448;2024-02-14T01:20:56;12.15;;;8.02;;
59040;SDS011;44825;53.200;6.448;2024-02-14T01:23:26;10.38;;;7.70;;
59040;SDS011;44825;53.200;6.448;2024-02-14T01:25:52;10.15;;;6.55;;
59040;SDS011;44825;53.200;6.448;2024-02-14T01:28:20;10.98;;;7.20;;
59040;SDS011;44825;53.200;6.448;2024-02-14T01:30:46;10.27;;;5.97;;
59040;SDS011;44825;53.200;6.448;2024-02-14T01:33:12;10.65;;;6.22;;
59040;SDS011;44825;53.200;6.448;2024-02-14T01:35:39;9.27;;;6.28;;
59040;SDS011;44825;53.200;6.448;2024-02-14T01:38:06;9.77;;;6.40;;
59040;SDS011;44825;53.200;6.448;2024-02-14T01:40:32;8.82;;;5.97;;
59040;SDS011;44825;53.200;6.448;2024-02-14T01:42:59;7.95;;;5.60;;
59040;SDS011;44825;53.200;6.448;2024-02-14T01:45:25;8.07;;;5.88;;
59040;SDS011;44825;53.200;6.448;2024-02-14T01:47:52;9.00;;;5.63;;
59040;SDS011;44825;53.200;6.448;2024-02-14T01:50:20;8.52;;;5.15;;
59040;SDS011;44825;53.200;6.448;2024-02-14T01:52:53;7.80;;;5.20;;
59040;SDS011;44825;53.200;6.448;2024-02-14T01:55:20;8.13;;;4.90;;
59040;SDS011;44825;53.200;6.448;2024-02-14T01:57:47;7.55;;;4.90;;
59040;SDS011;44825;53.200;6.448;2024-02-14T02:00:13;8.40;;;5.45;;
59040;SDS011;44825;53.200;6.448;2024-02-14T02:02:43;7.35;;;4.53;;
59040;SDS011;44825;53.200;6.448;2024-02-14T02:05:09;7.20;;;4.80;;
59040;SDS011;44825;53.200;6.448;2024-02-14T02:07:35;7.13;;;4.80;;
59040;SDS011;44825;53.200;6.448;2024-02-14T02:10:05;6.78;;;4.85;;
59040;SDS011;44825;53.200;6.448;2024-02-14T02:12:31;8.30;;;4.88;;
59040;SDS011;44825;53.200;6.448;2024-02-14T02:14:57;7.10;;;4.88;;
59040;SDS011;44825;53.200;6.448;2024-02-14T02:17:23;6.18;;;4.68;;
59040;SDS011;44825;53.200;6.448;2024-02-14T02:19:53;7.10;;;4.75;;
59040;SDS011;44825;53.200;6.448;2024-02-14T02:22:19;6.25;;;4.38;;
59040;SDS011;44825;53.200;6.448;2024-02-14T02:24:45;7.05;;;4.60;;
59040;SDS011;44825;53.200;6.448;2024-02-14T02:27:12;6.57;;;4.43;;
59040;SDS011;44825;53.200;6.448;2024-02-14T02:29:41;6.18;;;3.95;;
59040;SDS011;44825;53.200;6.448;2024-02-14T02:32:07;6.85;;;4.93;;
59040;SDS011;44825;53.200;6.448;2024-02-14T02:34:35;5.88;;;3.95;;
59040;SDS011;44825;53.200;6.448;2024-02-14T02:37:04;6.28;;;4.28;;
59040;SDS011;44825;53.200;6.448;2024-02-14T02:39:32;6.30;;;4.60;;
59040;SDS011;44825;53.200;6.448;2024-02-14T02:42:00;6.68;;;4.60;;
59040;SDS011;44825;53.200;6.448;2024-02-14T02:44:27;6.07;;;4.18;;
59040;SDS011;44825;53.200;6.448;2024-02-14T02:46:53;8.70;;;4.57;;
59040;SDS011;44825;53.200;6.448;2024-02-14T02:49:20;8.00;;;5.03;;
59040;SDS011;44825;53.200;6.448;2024-02-14T02:51:46;6.65;;;4.75;;
59040;SDS011;44825;53.200;6.448;2024-02-14T02:54:13;6.95;;;4.60;;
59040;SDS011;44825;53.200;6.448;2024-02-14T02:56:39;8.10;;;5.20;;
59040;SDS011;44825;53.200;6.448;2024-02-14T02:59:09;7.20;;;4.95;;
59040;SDS011;44825;53.200;6.448;2024-02-14T03:01:35;7.22;;;4.72;;
59040;SDS011;44825;53.200;6.448;2024-02-14T03:04:02;8.27;;;4.22;;
59040;SDS011;44825;53.200;6.448;2024-02-14T03:06:28;7.35;;;4.40;;
59040;SDS011;44825;53.200;6.448;2024-02-14T03:08:54;9.40;;;4.68;;
59040;SDS011;44825;53.200;6.448;2024-02-14T03:11:22;7.45;;;4.57;;
59040;SDS011;44825;53.200;6.448;2024-02-14T03:13:48;6.38;;;3.70;;
59040;SDS011;44825;53.200;6.448;2024-02-14T03:16:15;7.57;;;4.40;;
59040;SDS011;44825;53.200;6.448;2024-02-14T03:18:42;6.78;;;4.45;;
59040;SDS011;44825;53.200;6.448;2024-02-14T03:21:08;7.55;;;4.60;;
59040;SDS011;44825;53.200;6.448;2024-02-14T03:23:34;7.57;;;4.28;;
59040;SDS011;44825;53.200;6.448;2024-02-14T03:26:00;6.70;;;4.65;;
59040;SDS011;44825;53.200;6.448;2024-02-14T03:28:26;7.28;;;4.60;;
59040;SDS011;44825;53.200;6.448;2024-02-14T03:30:52;7.47;;;4.22;;
59040;SDS011;44825;53.200;6.448;2024-02-14T03:33:18;9.57;;;4.97;;
59040;SDS011;44825;53.200;6.448;2024-02-14T03:35:44;7.15;;;4.50;;
59040;SDS011;44825;53.200;6.448;2024-02-14T03:38:11;7.05;;;4.50;;
59040;SDS011;44825;53.200;6.448;2024-02-14T03:40:39;6.63;;;4.30;;
59040;SDS011;44825;53.200;6.448;2024-02-14T03:43:07;6.30;;;4.10;;
59040;SDS011;44825;53.200;6.448;2024-02-14T03:45:36;7.03;;;4.75;;
59040;SDS011;44825;53.200;6.448;2024-02-14T03:48:03;7.90;;;4.82;;
59040;SDS011;44825;53.200;6.448;2024-02-14T03:50:29;7.57;;;4.88;;
59040;SDS011;44825;53.200;6.448;2024-02-14T03:52:55;7.05;;;5.18;;
59040;SDS011;44825;53.200;6.448;2024-02-14T03:55:21;7.60;;;5.03;;
59040;SDS011;44825;53.200;6.448;2024-02-14T03:57:48;8.13;;;5.35;;
59040;SDS011;44825;53.200;6.448;2024-02-14T04:00:16;8.10;;;5.32;;
59040;SDS011;44825;53.200;6.448;2024-02-14T04:02:42;8.65;;;5.95;;
59040;SDS011;44825;53.200;6.448;2024-02-14T04:05:08;8.40;;;5.90;;
59040;SDS011;44825;53.200;6.448;2024-02-14T04:07:34;8.43;;;5.47;;
59040;SDS011;44825;53.200;6.448;2024-02-14T04:10:02;9.52;;;5.63;;
59040;SDS011;44825;53.200;6.448;2024-02-14T04:12:28;8.35;;;6.22;;
59040;SDS011;44825;53.200;6.448;2024-02-14T04:14:54;7.93;;;5.70;;
59040;SDS011;44825;53.200;6.448;2024-02-14T04:17:20;7.82;;;5.55;;
59040;SDS011;44825;53.200;6.448;2024-02-14T04:19:46;8.75;;;5.63;;
59040;SDS011;44825;53.200;6.448;2024-02-14T04:22:12;8.50;;;5.43;;
59040;SDS011;44825;53.200;6.448;2024-02-14T04:24:38;8.23;;;5.75;;
59040;SDS011;44825;53.200;6.448;2024-02-14T04:27:04;9.07;;;6.40;;
59040;SDS011;44825;53.200;6.448;2024-02-14T04:29:30;8.75;;;6.03;;
59040;SDS011;44825;53.200;6.448;2024-02-14T04:31:58;8.05;;;5.75;;
59040;SDS011;44825;53.200;6.448;2024-02-14T04:34:25;9.57;;;6.43;;
59040;SDS011;44825;53.200;6.448;2024-02-14T04:36:51;9.23;;;5.95;;
59040;SDS011;44825;53.200;6.448;2024-02-14T04:39:17;8.93;;;5.57;;
59040;SDS011;44825;53.200;6.448;2024-02-14T04:41:44;9.13;;;6.25;;
59040;SDS011;44825;53.200;6.448;2024-02-14T04:44:10;8.98;;;6.10;;
59040;SDS011;44825;53.200;6.448;2024-02-14T04:46:36;8.80;;;6.00;;
59040;SDS011;44825;53.200;6.448;2024-02-14T04:49:08;9.05;;;5.70;;
59040;SDS011;44825;53.200;6.448;2024-02-14T04:51:34;8.00;;;5.25;;
59040;SDS011;44825;53.200;6.448;2024-02-14T04:54:00;10.05;;;6.10;;
59040;SDS011;44825;53.200;6.448;2024-02-14T04:56:27;8.70;;;5.63;;
59040;SDS011;44825;53.200;6.448;2024-02-14T04:58:53;9.90;;;6.05;;
59040;SDS011;44825;53.200;6.448;2024-02-14T05:01:20;10.25;;;6.03;;
59040;SDS011;44825;53.200;6.448;2024-02-14T05:03:46;10.85;;;6.32;;
59040;SDS011;44825;53.200;6.448;2024-02-14T05:06:13;10.27;;;6.00;;
59040;SDS011;44825;53.200;6.448;2024-02-14T05:08:39;9.35;;;5.90;;
59040;SDS011;44825;53.200;6.448;2024-02-14T05:11:05;11.63;;;6.55;;
59040;SDS011;44825;53.200;6.448;2024-02-14T05:13:31;10.73;;;6.35;;
59040;SDS011;44825;53.200;6.448;2024-02-14T05:15:58;11.43;;;6.55;;
59040;SDS011;44825;53.200;6.448;2024-02-14T05:18:25;10.63;;;6.07;;
59040;SDS011;44825;53.200;6.448;2024-02-14T05:20:51;9.00;;;6.22;;
59040;SDS011;44825;53.200;6.448;2024-02-14T05:23:17;9.88;;;5.68;;
59040;SDS011;44825;53.200;6.448;2024-02-14T05:25:43;10.77;;;6.00;;
59040;SDS011;44825;53.200;6.448;2024-02-14T05:28:09;8.75;;;5.80;;
59040;SDS011;44825;53.200;6.448;2024-02-14T05:30:40;9.05;;;5.22;;
59040;SDS011;44825;53.200;6.448;2024-02-14T05:33:06;10.93;;;6.50;;
59040;SDS011;44825;53.200;6.448;2024-02-14T05:35:32;12.43;;;6.00;;
59040;SDS011;44825;53.200;6.448;2024-02-14T05:37:58;12.73;;;6.07;;
59040;SDS011;44825;53.200;6.448;2024-02-14T05:40:24;10.52;;;5.20;;
59040;SDS011;44825;53.200;6.448;2024-02-14T05:42:50;9.77;;;5.25;;
59040;SDS011;44825;53.200;6.448;2024-02-14T05:45:16;9.65;;;5.97;;
59040;SDS011;44825;53.200;6.448;2024-02-14T05:47:43;8.43;;;5.47;;
59040;SDS011;44825;53.200;6.448;2024-02-14T05:50:09;11.32;;;5.40;;
59040;SDS011;44825;53.200;6.448;2024-02-14T05:52:36;10.65;;;5.28;;
59040;SDS011;44825;53.200;6.448;2024-02-14T05:55:03;10.35;;;6.00;;
59040;SDS011;44825;53.200;6.448;2024-02-14T05:57:30;9.15;;;5.05;;
59040;SDS011;44825;53.200;6.448;2024-02-14T05:59:56;11.10;;;5.30;;
59040;SDS011;44825;53.200;6.448;2024-02-14T06:02:22;10.45;;;5.07;;
59040;SDS011;44825;53.200;6.448;2024-02-14T06:04:48;12.10;;;5.43;;
59040;SDS011;44825;53.200;6.448;2024-02-14T06:07:14;7.65;;;4.70;;
59040;SDS011;44825;53.200;6.448;2024-02-14T06:09:40;9.45;;;5.05;;
59040;SDS011;44825;53.200;6.448;2024-02-14T06:12:06;11.50;;;4.47;;
59040;SDS011;44825;53.200;6.448;2024-02-14T06:14:32;8.45;;;4.78;;
59040;SDS011;44825;53.200;6.448;2024-02-14T06:17:00;10.25;;;4.55;;
59040;SDS011;44825;53.200;6.448;2024-02-14T06:19:27;14.00;;;5.10;;
59040;SDS011;44825;53.200;6.448;2024-02-14T06:21:53;12.63;;;5.57;;
59040;SDS011;44825;53.200;6.448;2024-02-14T06:24:19;18.15;;;6.30;;
59040;SDS011;44825;53.200;6.448;2024-02-14T06:26:45;25.33;;;7.95;;
59040;SDS011;44825;53.200;6.448;2024-02-14T06:29:13;31.85;;;8.55;;
59040;SDS011;44825;53.200;6.448;2024-02-14T06:31:39;39.85;;;10.27;;
59040;SDS011;44825;53.200;6.448;2024-02-14T06:34:05;34.22;;;10.65;;
59040;SDS011;44825;53.200;6.448;2024-02-14T06:36:32;43.40;;;9.35;;
59040;SDS011;44825;53.200;6.448;2024-02-14T06:38:58;40.90;;;10.30;;
59040;SDS011;44825;53.200;6.448;2024-02-14T06:41:24;41.95;;;9.43;;
59040;SDS011;44825;53.200;6.448;2024-02-14T06:43:50;50.35;;;10.50;;
59040;SDS011;44825;53.200;6.448;2024-02-14T06:46:16;38.42;;;8.82;;
59040;SDS011;44825;53.200;6.448;2024-02-14T06:48:43;35.35;;;9.45;;
59040;SDS011;44825;53.200;6.448;2024-02-14T06:51:09;34.72;;;10.88;;
59040;SDS011;44825;53.200;6.448;2024-02-14T06:53:36;40.83;;;10.57;;
59040;SDS011;44825;53.200;6.448;2024-02-14T06:56:02;39.83;;;9.07;;
59040;SDS011;44825;53.200;6.448;2024-02-14T06:58:28;35.00;;;9.25;;
59040;SDS011;44825;53.200;6.448;2024-02-14T07:00:55;32.90;;;7.90;;
59040;SDS011;44825;53.200;6.448;2024-02-14T07:03:21;38.28;;;8.85;;
59040;SDS011;44825;53.200;6.448;2024-02-14T07:05:47;44.13;;;8.98;;
59040;SDS011;44825;53.200;6.448;2024-02-14T07:08:13;43.35;;;8.15;;
59040;SDS011;44825;53.200;6.448;2024-02-14T07:10:40;42.55;;;8.15;;
59040;SDS011;44825;53.200;6.448;2024-02-14T07:13:06;48.47;;;9.95;;
59040;SDS011;44825;53.200;6.448;2024-02-14T07:15:32;40.75;;;9.55;;
59040;SDS011;44825;53.200;6.448;2024-02-14T07:17:58;39.15;;;8.35;;
59040;SDS011;44825;53.200;6.448;2024-02-14T07:20:24;43.67;;;8.10;;
59040;SDS011;44825;53.200;6.448;2024-02-14T07:22:55;49.58;;;8.10;;
59040;SDS011;44825;53.200;6.448;2024-02-14T07:25:21;49.20;;;9.07;;
59040;SDS011;44825;53.200;6.448;2024-02-14T07:27:48;45.72;;;7.78;;
59040;SDS011;44825;53.200;6.448;2024-02-14T07:30:15;41.05;;;8.18;;
59040;SDS011;44825;53.200;6.448;2024-02-14T07:32:42;46.30;;;7.40;;
59040;SDS011;44825;53.200;6.448;2024-02-14T07:35:09;39.75;;;8.98;;
59040;SDS011;44825;53.200;6.448;2024-02-14T07:37:35;54.63;;;9.10;;
59040;SDS011;44825;53.200;6.448;2024-02-14T07:40:02;44.20;;;8.25;;
59040;SDS011;44825;53.200;6.448;2024-02-14T07:42:28;47.72;;;8.98;;
59040;SDS011;44825;53.200;6.448;2024-02-14T07:44:54;46.72;;;8.05;;
59040;SDS011;44825;53.200;6.448;2024-02-14T07:47:21;34.78;;;7.15;;
59040;SDS011;44825;53.200;6.448;2024-02-14T07:49:47;36.42;;;7.15;;
59040;SDS011;44825;53.200;6.448;2024-02-14T07:52:13;45.30;;;7.30;;
59040;SDS011;44825;53.200;6.448;2024-02-14T07:54:39;46.42;;;7.78;;
59040;SDS011;44825;53.200;6.448;2024-02-14T07:57:06;40.92;;;8.35;;
59040;SDS011;44825;53.200;6.448;2024-02-14T07:59:32;38.60;;;7.97;;
59040;SDS011;44825;53.200;6.448;2024-02-14T08:01:58;40.17;;;7.22;;
59040;SDS011;44825;53.200;6.448;2024-02-14T08:04:24;52.55;;;7.72;;
59040;SDS011;44825;53.200;6.448;2024-02-14T08:06:50;41.83;;;8.40;;
59040;SDS011;44825;53.200;6.448;2024-02-14T08:09:16;51.03;;;9.30;;
59040;SDS011;44825;53.200;6.448;2024-02-14T08:11:42;44.80;;;7.78;;
59040;SDS011;44825;53.200;6.448;2024-02-14T08:14:08;40.35;;;7.63;;
59040;SDS011;44825;53.200;6.448;2024-02-14T08:16:34;39.35;;;7.90;;
59040;SDS011;44825;53.200;6.448;2024-02-14T08:19:01;47.08;;;7.53;;
59040;SDS011;44825;53.200;6.448;2024-02-14T08:21:28;42.72;;;7.70;;
59040;SDS011;44825;53.200;6.448;2024-02-14T08:23:54;50.92;;;9.15;;
59040;SDS011;44825;53.200;6.448;2024-02-14T08:26:23;44.38;;;8.23;;
59040;SDS011;44825;53.200;6.448;2024-02-14T08:28:49;43.63;;;8.95;;
59040;SDS011;44825;53.200;6.448;2024-02-14T08:31:15;39.75;;;8.80;;
59040;SDS011;44825;53.200;6.448;2024-02-14T08:33:41;45.13;;;8.90;;
59040;SDS011;44825;53.200;6.448;2024-02-14T08:36:08;47.25;;;10.23;;
59040;SDS011;44825;53.200;6.448;2024-02-14T08:38:34;41.97;;;9.32;;
59040;SDS011;44825;53.200;6.448;2024-02-14T08:41:01;46.10;;;10.10;;
59040;SDS011;44825;53.200;6.448;2024-02-14T08:43:27;39.47;;;8.90;;
59040;SDS011;44825;53.200;6.448;2024-02-14T08:45:54;33.40;;;7.13;;
59040;SDS011;44825;53.200;6.448;2024-02-14T08:48:20;37.42;;;7.97;;
59040;SDS011;44825;53.200;6.448;2024-02-14T08:50:46;26.48;;;7.18;;
59040;SDS011;44825;53.200;6.448;2024-02-14T08:53:13;34.55;;;7.18;;
59040;SDS011;44825;53.200;6.448;2024-02-14T08:55:42;30.23;;;8.70;;
59040;SDS011;44825;53.200;6.448;2024-02-14T08:58:08;42.55;;;8.57;;
59040;SDS011;44825;53.200;6.448;2024-02-14T09:00:35;28.23;;;8.02;;
59040;SDS011;44825;53.200;6.448;2024-02-14T09:03:02;32.83;;;8.45;;
59040;SDS011;44825;53.200;6.448;2024-02-14T09:05:28;24.88;;;7.70;;
59040;SDS011;44825;53.200;6.448;2024-02-14T09:07:55;29.38;;;8.35;;
59040;SDS011;44825;53.200;6.448;2024-02-14T09:10:21;33.60;;;8.65;;
59040;SDS011;44825;53.200;6.448;2024-02-14T09:12:47;24.75;;;9.05;;
59040;SDS011;44825;53.200;6.448;2024-02-14T09:15:13;34.70;;;10.75;;
59040;SDS011;44825;53.200;6.448;2024-02-14T09:17:39;39.95;;;12.82;;
59040;SDS011;44825;53.200;6.448;2024-02-14T09:20:07;38.17;;;12.85;;
59040;SDS011;44825;53.200;6.448;2024-02-14T09:22:37;41.50;;;13.10;;
59040;SDS011;44825;53.200;6.448;2024-02-14T09:25:06;37.35;;;13.20;;
59040;SDS011;44825;53.200;6.448;2024-02-14T09:27:34;45.25;;;14.93;;
59040;SDS011;44825;53.200;6.448;2024-02-14T09:30:03;39.95;;;14.32;;
59040;SDS011;44825;53.200;6.448;2024-02-14T09:32:31;37.45;;;13.73;;
59040;SDS011;44825;53.200;6.448;2024-02-14T09:34:57;46.35;;;14.40;;
59040;SDS011;44825;53.200;6.448;2024-02-14T09:37:24;45.47;;;15.32;;
59040;SDS011;44825;53.200;6.448;2024-02-14T09:39:50;36.28;;;14.27;;
59040;SDS011;44825;53.200;6.448;2024-02-14T09:42:16;31.50;;;12.68;;
59040;SDS011;44825;53.200;6.448;2024-02-14T09:44:42;25.45;;;12.05;;
59040;SDS011;44825;53.200;6.448;2024-02-14T09:47:09;32.72;;;11.35;;
59040;SDS011;44825;53.200;6.448;2024-02-14T09:49:36;31.55;;;12.20;;
59040;SDS011;44825;53.200;6.448;2024-02-14T09:52:02;31.88;;;10.02;;
59040;SDS011;44825;53.200;6.448;2024-02-14T09:54:28;27.92;;;10.48;;
59040;SDS011;44825;53.200;6.448;2024-02-14T09:56:56;29.55;;;10.63;;
59040;SDS011;44825;53.200;6.448;2024-02-14T09:59:23;29.40;;;10.50;;
59040;SDS011;44825;53.200;6.448;2024-02-14T10:01:49;29.00;;;10.48;;
59040;SDS011;44825;53.200;6.448;2024-02-14T10:04:17;26.52;;;9.98;;
59040;SDS011;44825;53.200;6.448;2024-02-14T10:06:44;27.15;;;9.57;;
59040;SDS011;44825;53.200;6.448;2024-02-14T10:09:10;23.10;;;8.38;;
59040;SDS011;44825;53.200;6.448;2024-02-14T10:11:37;26.83;;;9.00;;
59040;SDS011;44825;53.200;6.448;2024-02-14T10:14:06;23.58;;;8.10;;
59040;SDS011;44825;53.200;6.448;2024-02-14T10:16:35;24.45;;;9.15;;
59040;SDS011;44825;53.200;6.448;2024-02-14T10:19:01;24.33;;;8.40;;
59040;SDS011;44825;53.200;6.448;2024-02-14T10:21:29;28.30;;;8.45;;
59040;SDS011;44825;53.200;6.448;2024-02-14T10:24:01;17.05;;;7.90;;
59040;SDS011;44825;53.200;6.448;2024-02-14T10:26:28;19.95;;;7.60;;
59040;SDS011;44825;53.200;6.448;2024-02-14T10:28:56;19.23;;;7.90;;
59040;SDS011;44825;53.200;6.448;2024-02-14T10:31:25;17.35;;;7.47;;
59040;SDS011;44825;53.200;6.448;2024-02-14T10:33:52;19.67;;;8.60;;
59040;SDS011;44825;53.200;6.448;2024-02-14T10:36:18;21.17;;;8.15;;
59040;SDS011;44825;53.200;6.448;2024-02-14T10:38:46;19.35;;;7.20;;
59040;SDS011;44825;53.200;6.448;2024-02-14T10:41:14;17.35;;;7.90;;
59040;SDS011;44825;53.200;6.448;2024-02-14T10:43:41;20.83;;;7.55;;
59040;SDS011;44825;53.200;6.448;2024-02-14T10:46:12;14.30;;;6.72;;
59040;SDS011;44825;53.200;6.448;2024-02-14T10:48:41;12.68;;;5.72;;
59040;SDS011;44825;53.200;6.448;2024-02-14T10:51:08;12.95;;;4.70;;
59040;SDS011;44825;53.200;6.448;2024-02-14T10:53:35;10.15;;;3.97;;
59040;SDS011;44825;53.200;6.448;2024-02-14T10:56:10;9.75;;;4.35;;
59040;SDS011;44825;53.200;6.448;2024-02-14T10:58:36;10.45;;;4.45;;
59040;SDS011;44825;53.200;6.448;2024-02-14T11:01:02;10.38;;;4.95;;
59040;SDS011;44825;53.200;6.448;2024-02-14T11:03:28;10.80;;;5.68;;
59040;SDS011;44825;53.200;6.448;2024-02-14T11:05:55;12.15;;;5.45;;
59040;SDS011;44825;53.200;6.448;2024-02-14T11:08:28;14.00;;;5.75;;
59040;SDS011;44825;53.200;6.448;2024-02-14T11:10:58;9.57;;;5.32;;
59040;SDS011;44825;53.200;6.448;2024-02-14T11:13:30;11.43;;;5.20;;
59040;SDS011;44825;53.200;6.448;2024-02-14T11:15:59;11.30;;;6.30;;
59040;SDS011;44825;53.200;6.448;2024-02-14T11:18:26;11.38;;;5.93;;
59040;SDS011;44825;53.200;6.448;2024-02-14T11:20:55;14.80;;;6.22;;
59040;SDS011;44825;53.200;6.448;2024-02-14T11:23:22;13.68;;;6.32;;
59040;SDS011;44825;53.200;6.448;2024-02-14T11:25:49;13.18;;;6.70;;
59040;SDS011;44825;53.200;6.448;2024-02-14T11:28:16;18.50;;;7.50;;
59040;SDS011;44825;53.200;6.448;2024-02-14T11:30:44;18.08;;;6.68;;
59040;SDS011;44825;53.200;6.448;2024-02-14T11:35:40;14.75;;;7.20;;
59040;SDS011;44825;53.200;6.448;2024-02-14T11:38:06;10.90;;;5.90;;
59040;SDS011;44825;53.200;6.448;2024-02-14T11:40:33;13.07;;;5.97;;
59040;SDS011;44825;53.200;6.448;2024-02-14T11:42:59;11.90;;;6.32;;
59040;SDS011;44825;53.200;6.448;2024-02-14T11:45:26;11.20;;;5.90;;
59040;SDS011;44825;53.200;6.448;2024-02-14T11:47:53;10.70;;;5.10;;
59040;SDS011;44825;53.200;6.448;2024-02-14T11:50:19;10.88;;;5.22;;
59040;SDS011;44825;53.200;6.448;2024-02-14T11:52:45;7.57;;;4.50;;
59040;SDS011;44825;53.200;6.448;2024-02-14T11:55:12;8.68;;;5.10;;
59040;SDS011;44825;53.200;6.448;2024-02-14T11:57:40;8.10;;;4.25;;
59040;SDS011;44825;53.200;6.448;2024-02-14T12:00:07;8.95;;;3.88;;
59040;SDS011;44825;53.200;6.448;2024-02-14T12:02:34;6.93;;;3.72;;
59040;SDS011;44825;53.200;6.448;2024-02-14T12:05:00;6.25;;;3.72;;
59040;SDS011;44825;53.200;6.448;2024-02-14T12:07:30;7.00;;;3.33;;
59040;SDS011;44825;53.200;6.448;2024-02-14T12:09:56;5.57;;;2.88;;
59040;SDS011;44825;53.200;6.448;2024-02-14T12:12:22;4.85;;;2.60;;
59040;SDS011;44825;53.200;6.448;2024-02-14T12:14:54;5.68;;;3.17;;
59040;SDS011;44825;53.200;6.448;2024-02-14T12:17:20;5.45;;;3.00;;
59040;SDS011;44825;53.200;6.448;2024-02-14T12:19:49;5.95;;;2.95;;
59040;SDS011;44825;53.200;6.448;2024-02-14T12:22:17;6.68;;;2.92;;
59040;SDS011;44825;53.200;6.448;2024-02-14T12:24:44;5.80;;;3.45;;
59040;SDS011;44825;53.200;6.448;2024-02-14T12:27:10;6.68;;;3.47;;
59040;SDS011;44825;53.200;6.448;2024-02-14T12:29:36;4.68;;;2.90;;
59040;SDS011;44825;53.200;6.448;2024-02-14T12:32:03;6.22;;;3.47;;
59040;SDS011;44825;53.200;6.448;2024-02-14T12:34:30;7.43;;;3.58;;
59040;SDS011;44825;53.200;6.448;2024-02-14T12:36:57;7.05;;;3.92;;
59040;SDS011;44825;53.200;6.448;2024-02-14T12:39:24;7.75;;;4.43;;
59040;SDS011;44825;53.200;6.448;2024-02-14T12:41:51;8.68;;;4.13;;
59040;SDS011;44825;53.200;6.448;2024-02-14T12:44:17;8.20;;;4.43;;
59040;SDS011;44825;53.200;6.448;2024-02-14T12:46:43;8.50;;;4.57;;
59040;SDS011;44825;53.200;6.448;2024-02-14T12:49:09;8.45;;;4.05;;
59040;SDS011;44825;53.200;6.448;2024-02-14T12:51:36;8.05;;;4.20;;
59040;SDS011;44825;53.200;6.448;2024-02-14T12:54:03;7.78;;;3.95;;
59040;SDS011;44825;53.200;6.448;2024-02-14T12:56:30;7.68;;;4.13;;
59040;SDS011;44825;53.200;6.448;2024-02-14T12:58:56;7.20;;;4.32;;
59040;SDS011;44825;53.200;6.448;2024-02-14T13:01:24;6.63;;;3.80;;
59040;SDS011;44825;53.200;6.448;2024-02-14T13:03:50;7.88;;;3.88;;
59040;SDS011;44825;53.200;6.448;2024-02-14T13:06:16;6.43;;;4.00;;
59040;SDS011;44825;53.200;6.448;2024-02-14T13:08:42;6.15;;;4.03;;
59040;SDS011;44825;53.200;6.448;2024-02-14T13:11:08;6.78;;;3.67;;
59040;SDS011;44825;53.200;6.448;2024-02-14T13:13:35;6.75;;;3.65;;
59040;SDS011;44825;53.200;6.448;2024-02-14T13:16:01;7.20;;;4.07;;
59040;SDS011;44825;53.200;6.448;2024-02-14T13:18:27;8.93;;;4.30;;
59040;SDS011;44825;53.200;6.448;2024-02-14T13:20:53;7.30;;;5.00;;
59040;SDS011;44825;53.200;6.448;2024-02-14T13:23:24;9.10;;;5.28;;
59040;SDS011;44825;53.200;6.448;2024-02-14T13:25:51;6.75;;;4.80;;
59040;SDS011;44825;53.200;6.448;2024-02-14T13:28:17;7.10;;;5.07;;
59040;SDS011;44825;53.200;6.448;2024-02-14T13:30:43;7.38;;;5.10;;
59040;SDS011;44825;53.200;6.448;2024-02-14T13:33:11;9.20;;;5.68;;
59040;SDS011;44825;53.200;6.448;2024-02-14T13:35:37;7.60;;;5.15;;
59040;SDS011;44825;53.200;6.448;2024-02-14T13:38:07;7.88;;;5.40;;
59040;SDS011;44825;53.200;6.448;2024-02-14T13:40:36;11.10;;;5.40;;
59040;SDS011;44825;53.200;6.448;2024-02-14T13:43:02;9.00;;;5.95;;
59040;SDS011;44825;53.200;6.448;2024-02-14T13:45:33;8.13;;;4.97;;
59040;SDS011;44825;53.200;6.448;2024-02-14T13:48:05;8.90;;;5.95;;
59040;SDS011;44825;53.200;6.448;2024-02-14T13:50:32;9.98;;;6.40;;
59040;SDS011;44825;53.200;6.448;2024-02-14T13:52:59;10.77;;;6.75;;
59040;SDS011;44825;53.200;6.448;2024-02-14T13:55:25;9.77;;;6.72;;
59040;SDS011;44825;53.200;6.448;2024-02-14T13:57:51;11.38;;;7.22;;
59040;SDS011;44825;53.200;6.448;2024-02-14T14:00:17;11.10;;;7.70;;
59040;SDS011;44825;53.200;6.448;2024-02-14T14:02:43;11.85;;;7.35;;
59040;SDS011;44825;53.200;6.448;2024-02-14T14:05:09;9.90;;;7.40;;
59040;SDS011;44825;53.200;6.448;2024-02-14T14:07:36;12.27;;;7.60;;
59040;SDS011;44825;53.200;6.448;2024-02-14T14:10:03;11.70;;;8.25;;
59040;SDS011;44825;53.200;6.448;2024-02-14T14:12:29;11.75;;;7.93;;
59040;SDS011;44825;53.200;6.448;2024-02-14T14:14:55;11.07;;;8.10;;
59040;SDS011;44825;53.200;6.448;2024-02-14T14:17:21;9.52;;;7.32;;
59040;SDS011;44825;53.200;6.448;2024-02-14T14:19:47;12.32;;;8.88;;
59040;SDS011;44825;53.200;6.448;2024-02-14T14:22:13;12.18;;;9.85;;
59040;SDS011;44825;53.200;6.448;2024-02-14T14:24:41;10.25;;;8.18;;
59040;SDS011;44825;53.200;6.448;2024-02-14T14:27:07;10.13;;;8.43;;
59040;SDS011;44825;53.200;6.448;2024-02-14T14:29:40;11.35;;;8.68;;
59040;SDS011;44825;53.200;6.448;2024-02-14T14:32:06;10.73;;;8.43;;
59040;SDS011;44825;53.200;6.448;2024-02-14T14:34:33;10.13;;;7.93;;
59040;SDS011;44825;53.200;6.448;2024-02-14T14:36:59;9.18;;;8.07;;